createdAt,value
2022-09-13T00:01:37.822Z,98633.75
2022-09-13T00:04:24.454Z,98622.59
2022-09-13T00:07:10.595Z,98609.66
2022-09-13T00:09:56.966Z,98615.75
2022-09-13T00:12:43.414Z,98635.41
2022-09-13T00:15:30.229Z,98605.41
2022-09-13T00:18:18.711Z,98631.16
2022-09-13T00:21:08.666Z,98598.63
2022-09-13T00:23:55.660Z,98626.16
2022-09-13T00:26:42.233Z,98598.72
2022-09-13T00:29:28.584Z,98619.25
2022-09-13T00:32:15.010Z,98609.88
2022-09-13T00:35:03.247Z,98594.44
2022-09-13T00:37:50.167Z,98546.44
2022-09-13T00:40:39.667Z,98601.31
2022-09-13T00:43:52.329Z,98611.50
2022-09-13T00:46:50.241Z,98569.31
2022-09-13T00:49:40.342Z,98594.25
2022-09-13T00:52:31.082Z,98595.13
2022-09-13T00:55:23.990Z,98603.00
2022-09-13T00:58:15.950Z,98592.78
2022-09-13T01:01:05.249Z,98563.72
2022-09-13T01:03:51.960Z,98580.94
2022-09-13T01:06:40.205Z,98575.88
2022-09-13T01:09:28.319Z,98580.03
2022-09-13T01:12:34.520Z,98602.25
2022-09-13T01:15:20.952Z,98595.50
2022-09-13T01:18:09.021Z,98584.38
2022-09-13T01:21:33.053Z,98620.41
2022-09-13T01:24:34.721Z,98613.56
2022-09-13T01:27:34.704Z,98611.03
2022-09-13T01:30:23.958Z,98608.41
2022-09-13T01:33:28.922Z,98602.25
2022-09-13T01:36:18.346Z,98611.75
2022-09-13T01:39:07.964Z,98599.84
2022-09-13T01:42:32.438Z,98612.94
2022-09-13T01:45:23.040Z,98588.19
2022-09-13T01:48:21.495Z,98613.94
2022-09-13T01:51:21.624Z,98619.16
2022-09-13T01:54:29.241Z,98582.28
2022-09-13T01:57:15.557Z,98610.63
2022-09-13T02:00:10.038Z,98575.47
2022-09-13T02:03:12.917Z,98578.88
2022-09-13T02:06:10.614Z,98583.13
2022-09-13T02:09:01.824Z,98578.03
2022-09-13T02:11:54.729Z,98591.72
2022-09-13T02:14:44.271Z,98606.31
2022-09-13T02:17:37.336Z,98601.25
2022-09-13T02:20:31.517Z,98597.81
2022-09-13T02:23:30.883Z,98592.69
2022-09-13T02:26:20.283Z,98591.81
2022-09-13T02:29:11.615Z,98621.00
2022-09-13T02:32:16.648Z,98603.88
2022-09-13T02:35:10.056Z,98626.16
2022-09-13T02:38:18.751Z,98600.41
2022-09-13T02:41:30.001Z,98621.03
2022-09-13T02:44:31.883Z,98598.72
2022-09-13T02:48:10.261Z,98630.53
2022-09-13T02:51:26.065Z,98616.81
2022-09-13T02:54:30.747Z,98593.66
2022-09-13T02:57:25.576Z,98610.75
2022-09-13T03:00:12.030Z,98577.34
2022-09-13T03:03:02.594Z,98579.09
2022-09-13T03:05:48.817Z,98609.13
2022-09-13T03:08:36.467Z,98604.81
2022-09-13T03:11:41.610Z,98578.13
2022-09-13T03:14:30.666Z,98601.28
2022-09-13T03:17:42.606Z,98566.06
2022-09-13T03:20:45.440Z,98560.84
2022-09-13T03:23:55.869Z,98601.31
2022-09-13T03:26:45.309Z,98621.19
2022-09-13T03:29:56.371Z,98625.53
2022-09-13T03:32:48.945Z,98629.03
2022-09-13T03:35:54.642Z,98596.41
2022-09-13T03:39:33.950Z,98602.31
2022-09-13T03:42:36.204Z,98562.78
2022-09-13T03:45:31.260Z,98603.03
2022-09-13T03:48:18.865Z,98597.03
2022-09-13T03:51:06.499Z,98600.56
2022-09-13T03:53:58.152Z,98583.44
2022-09-13T03:57:04.594Z,98591.16
2022-09-13T03:59:53.756Z,98563.69
2022-09-13T04:02:40.242Z,98580.09
2022-09-13T04:05:26.933Z,98546.56
2022-09-13T04:08:13.029Z,98555.97
2022-09-13T04:10:59.593Z,98545.72
2022-09-13T04:13:46.081Z,98591.28
2022-09-13T04:16:32.505Z,98579.34
2022-09-13T04:19:19.351Z,98580.19
2022-09-13T04:22:05.773Z,98586.09
2022-09-13T04:24:52.861Z,98580.94
2022-09-13T04:27:39.223Z,98579.22
2022-09-13T04:30:28.111Z,98606.66
2022-09-13T04:33:14.962Z,98614.38
2022-09-13T04:36:01.476Z,98604.06
2022-09-13T04:38:48.090Z,98600.50
2022-09-13T04:41:34.669Z,98606.34
2022-09-13T04:44:21.617Z,98610.50
2022-09-13T04:47:08.852Z,98598.50
2022-09-13T04:49:55.109Z,98602.03
2022-09-13T04:52:41.315Z,98622.66
2022-09-13T04:55:27.551Z,98620.06
2022-09-13T04:58:14.154Z,98622.53
2022-09-13T05:01:05.786Z,98631.19
2022-09-13T05:03:53.497Z,98616.59
2022-09-13T05:06:39.983Z,98594.22
2022-09-13T05:09:26.225Z,98643.09
2022-09-13T05:12:12.550Z,98634.69
2022-09-13T05:14:58.965Z,98627.81
2022-09-13T05:17:45.416Z,98616.66
2022-09-13T05:20:31.976Z,98591.78
2022-09-13T05:23:18.535Z,98618.25
2022-09-13T05:26:06.458Z,98649.94
2022-09-13T05:28:53.487Z,98643.88
2022-09-13T05:31:42.366Z,98661.06
2022-09-13T05:34:28.530Z,98648.19
2022-09-13T05:37:15.037Z,98644.00
2022-09-13T05:40:11.606Z,98634.34
2022-09-13T05:42:58.581Z,98635.00
2022-09-13T05:45:44.674Z,98645.25
2022-09-13T05:48:32.875Z,98642.53
2022-09-13T05:51:21.415Z,98638.00
2022-09-13T05:54:10.927Z,98634.38
2022-09-13T05:56:57.521Z,98616.97
2022-09-13T05:59:44.251Z,98628.88
2022-09-13T06:02:31.346Z,98640.91
2022-09-13T06:05:17.845Z,98635.78
2022-09-13T06:08:04.063Z,98674.28
2022-09-13T06:10:57.622Z,98673.47
2022-09-13T06:13:43.839Z,98668.16
2022-09-13T06:16:30.141Z,98678.19
2022-09-13T06:19:16.818Z,98665.47
2022-09-13T06:22:03.221Z,98664.53
2022-09-13T06:24:49.595Z,98664.16
2022-09-13T06:27:35.845Z,98628.97
2022-09-13T06:30:22.274Z,98658.22
2022-09-13T06:33:08.580Z,98658.03
2022-09-13T06:35:54.874Z,98664.88
2022-09-13T06:38:41.818Z,98652.69
2022-09-13T06:41:28.335Z,98648.91
2022-09-13T06:44:14.846Z,98657.88
2022-09-13T06:47:01.402Z,98632.44
2022-09-13T06:49:47.598Z,98640.53
2022-09-13T06:52:34.020Z,98654.66
2022-09-13T06:55:20.361Z,98644.91
2022-09-13T06:58:06.814Z,98612.34
2022-09-13T07:00:56.002Z,98618.09
2022-09-13T07:03:47.942Z,98622.63
2022-09-13T07:06:40.229Z,98623.16
2022-09-13T07:09:26.687Z,98600.66
2022-09-13T07:12:15.596Z,98635.22
2022-09-13T07:15:04.415Z,98631.25
2022-09-13T07:17:51.004Z,98611.56
2022-09-13T07:20:37.181Z,98632.47
2022-09-13T07:23:23.716Z,98630.34
2022-09-13T07:26:10.586Z,98622.56
2022-09-13T07:29:02.962Z,98615.97
2022-09-13T07:31:51.865Z,98600.72
2022-09-13T07:34:38.188Z,98622.44
2022-09-13T07:37:24.726Z,98608.41
2022-09-13T07:40:11.557Z,98606.97
2022-09-13T07:42:58.141Z,98622.56
2022-09-13T07:45:44.415Z,98617.69
2022-09-13T07:48:43.761Z,98614.06
2022-09-13T07:51:32.614Z,98636.00
2022-09-13T07:54:19.610Z,98624.22
2022-09-13T07:57:05.751Z,98612.16
2022-09-13T07:59:52.195Z,98615.88
2022-09-13T08:02:38.814Z,98601.81
2022-09-13T08:05:25.214Z,98571.78
2022-09-13T08:08:11.800Z,98588.00
2022-09-13T08:10:58.864Z,98571.94
2022-09-13T08:13:51.114Z,98596.91
2022-09-13T08:16:39.305Z,98611.97
2022-09-13T08:19:26.872Z,98585.91
2022-09-13T08:22:13.445Z,98590.50
2022-09-13T08:24:59.694Z,98596.97
2022-09-13T08:27:46.374Z,98609.81
2022-09-13T08:30:35.849Z,98611.31
2022-09-13T08:33:21.871Z,98603.22
2022-09-13T08:36:08.436Z,98580.34
2022-09-13T08:39:00.148Z,98598.59
2022-09-13T08:41:55.172Z,98602.13
2022-09-13T08:44:56.019Z,98600.00
2022-09-13T08:47:55.080Z,98586.19
2022-09-13T08:50:44.914Z,98588.25
2022-09-13T08:53:35.387Z,98602.38
2022-09-13T08:56:38.428Z,98595.97
2022-09-13T09:00:10.042Z,98596.44
2022-09-13T09:03:12.121Z,98593.78
2022-09-13T09:05:58.793Z,98580.69
2022-09-13T09:08:52.066Z,98574.44
2022-09-13T09:12:03.174Z,98595.97
2022-09-13T09:15:00.958Z,98585.16
2022-09-13T09:18:10.555Z,98604.94
2022-09-13T09:21:00.144Z,98584.94
2022-09-13T09:23:54.863Z,98596.41
2022-09-13T09:26:41.246Z,98600.59
2022-09-13T09:29:32.778Z,98608.19
2022-09-13T09:32:50.852Z,98588.38
2022-09-13T09:35:59.172Z,98588.06
2022-09-13T09:38:46.026Z,98570.94
2022-09-13T09:41:35.128Z,98592.53
2022-09-13T09:44:25.962Z,98616.78
2022-09-13T09:47:28.535Z,98615.84
2022-09-13T09:50:24.082Z,98610.25
2022-09-13T09:53:27.750Z,98604.47
2022-09-13T09:56:26.261Z,98608.50
2022-09-13T09:59:26.754Z,98596.13
2022-09-13T10:02:21.896Z,98611.75
2022-09-13T10:05:08.667Z,98610.91
2022-09-13T10:07:58.486Z,98611.00
2022-09-13T10:10:53.837Z,98603.94
2022-09-13T10:13:58.684Z,98595.94
2022-09-13T10:16:45.666Z,98595.38
2022-09-13T10:19:33.260Z,98586.53
2022-09-13T10:22:20.056Z,98564.72
2022-09-13T10:25:24.085Z,98562.81
2022-09-13T10:28:19.483Z,98568.63
2022-09-13T10:31:12.846Z,98595.69
2022-09-13T10:34:07.751Z,98593.78
2022-09-13T10:37:05.879Z,98584.16
2022-09-13T10:40:05.163Z,98590.41
2022-09-13T10:43:03.827Z,98583.00
2022-09-13T10:45:51.622Z,98576.59
2022-09-13T10:48:47.239Z,98568.31
2022-09-13T10:51:38.454Z,98549.97
2022-09-13T10:54:24.825Z,98550.50
2022-09-13T10:57:34.764Z,98567.03
2022-09-13T11:00:34.620Z,98566.28
2022-09-13T11:03:33.050Z,98561.00
2022-09-13T11:06:47.681Z,98577.47
2022-09-13T11:09:38.389Z,98559.00
2022-09-13T11:12:39.355Z,98571.41
2022-09-13T11:16:00.410Z,98568.72
2022-09-13T11:18:55.728Z,98558.38
2022-09-13T11:22:20.906Z,98566.59
2022-09-13T11:25:31.415Z,98549.22
2022-09-13T11:28:46.171Z,98572.78
2022-09-13T11:31:58.943Z,98573.78
2022-09-13T11:35:07.027Z,98573.06
2022-09-13T11:38:01.151Z,98528.00
2022-09-13T11:41:00.158Z,98562.19
2022-09-13T11:44:09.642Z,98562.50
2022-09-13T11:46:58.623Z,98560.47
2022-09-13T11:50:18.643Z,98525.84
2022-09-13T11:53:31.342Z,98549.00
2022-09-13T11:56:34.536Z,98541.63
2022-09-13T11:59:52.947Z,98533.69
2022-09-13T12:02:47.200Z,98549.31
2022-09-13T12:05:49.241Z,98524.78
2022-09-13T12:08:42.537Z,98547.97
2022-09-13T12:11:32.679Z,98535.94
2022-09-13T12:14:23.597Z,98526.91
2022-09-13T12:17:22.699Z,98509.34
2022-09-13T12:20:32.214Z,98526.44
2022-09-13T12:23:42.728Z,98522.84
2022-09-13T12:26:53.930Z,98512.69
2022-09-13T12:29:44.217Z,98508.63
2022-09-13T12:32:31.292Z,98474.06
2022-09-13T12:35:41.329Z,98472.25
2022-09-13T12:39:09.119Z,98473.69
2022-09-13T12:41:55.714Z,98486.59
2022-09-13T12:45:16.589Z,98470.19
2022-09-13T12:48:31.211Z,98464.91
2022-09-13T12:51:26.616Z,98460.06
2022-09-13T12:54:31.565Z,98454.38
2022-09-13T12:57:53.409Z,98453.53
2022-09-13T13:01:02.615Z,98435.66
2022-09-13T13:04:03.237Z,98451.25
2022-09-13T13:07:05.090Z,98445.72
2022-09-13T13:09:54.654Z,98410.25
2022-09-13T13:12:41.319Z,98438.41
2022-09-13T13:15:27.402Z,98446.34
2022-09-13T13:18:48.982Z,98445.28
2022-09-13T13:21:38.996Z,98432.06
2022-09-13T13:24:28.139Z,98434.72
2022-09-13T13:27:35.837Z,98434.94
2022-09-13T13:30:50.543Z,98407.03
2022-09-13T13:34:11.069Z,98427.38
2022-09-13T13:37:31.667Z,98398.88
2022-09-13T13:40:25.654Z,98400.00
2022-09-13T13:43:33.652Z,98390.00
2022-09-13T13:46:24.678Z,98417.56
2022-09-13T13:49:33.623Z,98414.91
2022-09-13T13:52:23.004Z,98415.09
2022-09-13T13:55:28.654Z,98403.75
2022-09-13T13:58:34.743Z,98415.34
2022-09-13T14:01:28.022Z,98404.47
2022-09-13T14:04:51.554Z,98407.59
2022-09-13T14:07:47.085Z,98404.22
2022-09-13T14:10:52.385Z,98406.88
2022-09-13T14:14:00.507Z,98405.19
2022-09-13T14:17:18.060Z,98401.38
2022-09-13T14:20:10.698Z,98386.53
2022-09-13T14:23:18.663Z,98381.00
2022-09-13T14:26:06.096Z,98381.34
2022-09-13T14:28:52.553Z,98381.94
2022-09-13T14:31:39.089Z,98365.72
2022-09-13T14:34:35.295Z,98391.91
2022-09-13T14:37:27.051Z,98372.34
2022-09-13T14:40:22.440Z,98377.19
2022-09-13T14:43:20.581Z,98347.28
2022-09-13T14:46:25.704Z,98368.03
2022-09-13T14:49:24.118Z,98374.25
2022-09-13T14:52:20.413Z,98372.13
2022-09-13T14:55:14.180Z,98367.19
2022-09-13T14:58:15.835Z,98344.31
2022-09-13T15:01:08.679Z,98358.56
2022-09-13T15:03:58.043Z,98348.44
2022-09-13T15:06:44.725Z,98332.41
2022-09-13T15:09:30.921Z,98316.41
2022-09-13T15:12:25.991Z,98296.03
2022-09-13T15:15:26.435Z,98314.84
2022-09-13T15:18:15.933Z,98319.31
2022-09-13T15:21:05.123Z,98317.97
2022-09-13T15:23:51.509Z,98305.31
2022-09-13T15:26:37.840Z,98298.31
2022-09-13T15:29:24.436Z,98308.41
2022-09-13T15:32:22.914Z,98289.63
2022-09-13T15:35:21.970Z,98248.13
2022-09-13T15:38:24.399Z,98270.06
2022-09-13T15:41:10.806Z,98279.00
2022-09-13T15:43:58.744Z,98273.00
2022-09-13T15:46:54.510Z,98258.22
2022-09-13T15:49:46.608Z,98275.44
2022-09-13T15:52:33.097Z,98252.38
2022-09-13T15:55:19.910Z,98267.69
2022-09-13T15:58:06.151Z,98227.28
2022-09-13T16:00:52.649Z,98243.78
2022-09-13T16:03:39.075Z,98251.34
2022-09-13T16:06:28.922Z,98253.34
2022-09-13T16:09:18.197Z,98257.75
2022-09-13T16:12:05.131Z,98256.13
2022-09-13T16:14:51.520Z,98253.38
2022-09-13T16:17:38.049Z,98232.78
2022-09-13T16:20:24.426Z,98219.00
2022-09-13T16:23:11.613Z,98224.88
2022-09-13T16:25:59.775Z,98229.66
2022-09-13T16:28:46.096Z,98223.78
2022-09-13T16:31:32.635Z,98218.81
2022-09-13T16:34:19.023Z,98229.28
2022-09-13T16:37:05.716Z,98221.66
2022-09-13T16:39:52.298Z,98241.13
2022-09-13T16:42:39.243Z,98220.28
2022-09-13T16:45:25.764Z,98240.25
2022-09-13T16:48:12.268Z,98209.53
2022-09-13T16:51:09.935Z,98235.94
2022-09-13T16:53:56.465Z,98228.69
2022-09-13T16:56:43.102Z,98204.59
2022-09-13T16:59:30.486Z,98223.69
2022-09-13T17:02:16.818Z,98205.28
2022-09-13T17:05:05.311Z,98214.94
2022-09-13T17:07:52.465Z,98226.38
2022-09-13T17:10:38.705Z,98226.72
2022-09-13T17:13:25.199Z,98222.25
2022-09-13T17:16:20.135Z,98230.19
2022-09-13T17:19:11.126Z,98236.78
2022-09-13T17:21:57.909Z,98235.53
2022-09-13T17:24:44.794Z,98234.34
2022-09-13T17:27:31.249Z,98229.28
2022-09-13T17:30:17.897Z,98218.06
2022-09-13T17:33:05.883Z,98216.66
2022-09-13T17:36:03.206Z,98217.22
2022-09-13T17:38:49.553Z,98221.41
2022-09-13T17:41:36.319Z,98221.94
2022-09-13T17:44:22.550Z,98182.69
2022-09-13T17:47:09.039Z,98219.47
2022-09-13T17:49:55.949Z,98233.34
2022-09-13T17:52:42.218Z,98233.22
2022-09-13T17:55:28.859Z,98211.47
2022-09-13T17:58:15.589Z,98220.88
2022-09-13T18:01:03.169Z,98206.88
2022-09-13T18:03:50.151Z,98223.19
2022-09-13T18:06:38.417Z,98205.56
2022-09-13T18:09:24.945Z,98217.00
2022-09-13T18:12:12.107Z,98225.69
2022-09-13T18:14:58.619Z,98224.91
2022-09-13T18:17:45.267Z,98201.59
2022-09-13T18:20:31.710Z,98230.59
2022-09-13T18:23:18.342Z,98245.72
2022-09-13T18:26:10.602Z,98232.47
2022-09-13T18:29:01.811Z,98239.84
2022-09-13T18:31:48.223Z,98239.59
2022-09-13T18:34:34.400Z,98258.56
2022-09-13T18:37:20.542Z,98229.91
2022-09-13T18:40:13.847Z,98232.94
2022-09-13T18:43:00.087Z,98252.75
2022-09-13T18:45:54.290Z,98259.94
2022-09-13T18:48:45.942Z,98257.47
2022-09-13T18:51:35.577Z,98234.72
2022-09-13T18:54:21.886Z,98258.72
2022-09-13T18:57:08.439Z,98254.88
2022-09-13T18:59:54.839Z,98248.56
2022-09-13T19:03:02.204Z,98272.03
2022-09-13T19:05:48.158Z,98273.56
2022-09-13T19:08:34.470Z,98280.06
2022-09-13T19:11:44.708Z,98287.22
2022-09-13T19:14:30.081Z,98283.59
2022-09-13T19:17:16.710Z,98284.91
2022-09-13T19:20:04.315Z,98268.16
2022-09-13T19:22:52.276Z,98271.22
2022-09-13T19:25:38.521Z,98275.88
2022-09-13T19:28:24.742Z,98276.78
2022-09-13T19:31:12.376Z,98286.19
2022-09-13T19:33:58.872Z,98266.47
2022-09-13T19:36:45.862Z,98281.41
2022-09-13T19:39:32.317Z,98276.31
2022-09-13T19:42:18.864Z,98285.09
2022-09-13T19:45:05.905Z,98273.31
2022-09-13T19:48:34.812Z,98293.31
2022-09-13T19:51:05.328Z,98289.06
2022-09-13T19:53:57.278Z,98300.22
2022-09-13T19:56:44.680Z,98278.00
2022-09-13T19:59:34.195Z,98289.84
2022-09-13T20:02:20.727Z,98282.63
2022-09-13T20:05:07.025Z,98266.41
2022-09-13T20:07:53.880Z,98282.41
2022-09-13T20:10:40.324Z,98272.22
2022-09-13T20:13:26.810Z,98279.88
2022-09-13T20:16:18.148Z,98277.47
2022-09-13T20:19:18.390Z,98263.16
2022-09-13T20:22:11.688Z,98249.69
2022-09-13T20:24:58.059Z,98282.84
2022-09-13T20:27:44.273Z,98274.34
2022-09-13T20:30:30.580Z,98242.19
2022-09-13T20:33:17.155Z,98240.63
2022-09-13T20:36:05.292Z,98269.81
2022-09-13T20:38:53.401Z,98270.13
2022-09-13T20:41:39.631Z,98242.16
2022-09-13T20:44:26.072Z,98250.63
2022-09-13T20:47:13.376Z,98258.75
2022-09-13T20:49:59.605Z,98236.81
2022-09-13T20:52:47.152Z,98250.69
2022-09-13T20:55:34.146Z,98247.34
2022-09-13T20:58:22.035Z,98253.38
2022-09-13T21:01:14.347Z,98232.78
2022-09-13T21:04:01.317Z,98244.22
2022-09-13T21:07:08.897Z,98263.16
2022-09-13T21:09:59.605Z,98244.41
2022-09-13T21:12:51.134Z,98252.28
2022-09-13T21:15:38.533Z,98219.22
2022-09-13T21:18:24.954Z,98214.69
2022-09-13T21:21:18.086Z,98249.56
2022-09-13T21:24:08.613Z,98245.31
2022-09-13T21:26:57.275Z,98186.66
2022-09-13T21:29:43.852Z,98225.06
2022-09-13T21:32:30.327Z,98197.75
2022-09-13T21:35:16.907Z,98211.44
2022-09-13T21:38:03.194Z,98224.41
2022-09-13T21:40:57.970Z,98240.75
2022-09-13T21:43:45.227Z,98239.06
2022-09-13T21:46:34.179Z,98225.28
2022-09-13T21:49:20.639Z,98232.78
2022-09-13T21:52:06.699Z,98218.63
2022-09-13T21:54:53.171Z,98228.69
2022-09-13T21:57:39.626Z,98193.84
2022-09-13T22:00:26.002Z,98209.75
2022-09-13T22:03:12.682Z,98206.19
2022-09-13T22:05:59.125Z,98199.09
2022-09-13T22:08:47.957Z,98211.03
2022-09-13T22:11:38.619Z,98212.88
2022-09-13T22:14:25.187Z,98206.97
2022-09-13T22:17:11.539Z,98209.22
2022-09-13T22:19:57.945Z,98213.69
2022-09-13T22:22:44.870Z,98207.16
2022-09-13T22:25:32.017Z,98199.97
2022-09-13T22:28:18.213Z,98197.19
2022-09-13T22:31:13.548Z,98187.34
2022-09-13T22:34:01.280Z,98192.28
2022-09-13T22:36:47.963Z,98176.81
2022-09-13T22:39:34.194Z,98185.16
2022-09-13T22:42:20.919Z,98175.88
2022-09-13T22:45:09.063Z,98164.81
2022-09-13T22:47:55.193Z,98158.88
2022-09-13T22:50:41.638Z,98152.78
2022-09-13T22:53:28.288Z,98165.53
2022-09-13T22:56:16.141Z,98174.47
2022-09-13T22:59:14.583Z,98140.50
2022-09-13T23:02:01.049Z,98171.94
2022-09-13T23:04:47.119Z,98165.28
2022-09-13T23:07:33.527Z,98168.94
2022-09-13T23:10:20.034Z,98167.38
2022-09-13T23:13:06.078Z,98156.91
2022-09-13T23:15:52.545Z,98141.69
2022-09-13T23:18:39.036Z,98161.22
2022-09-13T23:21:32.831Z,98133.22
2022-09-13T23:24:19.989Z,98157.84
2022-09-13T23:27:07.362Z,98138.38
2022-09-13T23:29:53.597Z,98141.63
2022-09-13T23:32:40.022Z,98148.50
2022-09-13T23:35:26.373Z,98124.50
2022-09-13T23:38:12.863Z,98129.19
2022-09-13T23:40:59.454Z,98113.19
2022-09-13T23:43:46.803Z,98139.94
2022-09-13T23:46:33.428Z,98121.78
2022-09-13T23:49:19.729Z,98106.09
2022-09-13T23:52:05.946Z,98121.00
2022-09-13T23:54:52.411Z,98102.78
2022-09-13T23:57:38.866Z,98118.13
